Latest Weather Observations for Yunta

IDS60801

Issued at 2:01 pm CST Friday 27 May 2016 (issued every 30 minutes, with the page automatically refreshed every 10 minutes)

About weather observations | Map of weather stations | Latest weather observations for SA | Other Formats
Station Details ID: 020062 Name: YUNTA AIRSTRIP Lat: -32.57 Lon: 139.56 Height: 300.0 m
Data from the previous 72 hours. | See also: Recent months at Yunta
Date/Time
CST
Temp
°C
App
Temp
°C
Dew
Point
Rel
Hum
%
Delta-T
°C
Wind Press
QNH
hPa
Press
MSL
hPa
Rain
since 9 am
mm
Dir
 
Spd
km/h
Gust
km/h
Spd
kts
Gust
kts
27/02:00pm 16.8 9.3 3.5 41 6.3 WNW 32 46 17 25 1008.3 1008.2 0.0
27/01:30pm 15.7 9.6 6.4 54 4.6 W 28 39 15 21 1009.2 1009.1 0.0
27/01:00pm 15.6 9.8 6.1 53 4.7 W 26 35 14 19 1009.7 1009.6 0.0
27/12:30pm 16.2 10.1 6.6 53 4.8 WNW 28 37 15 20 1010.2 1010.1 0.0
27/12:00pm 15.3 9.6 8.5 64 3.5 WNW 28 39 15 21 1010.5 1010.4 0.0
27/11:30am 14.2 10.5 10.0 76 2.2 NW 20 28 11 15 1011.0 1010.9 0.0
27/11:00am 14.1 10.0 8.5 69 2.9 WNW 20 28 11 15 1011.4 1011.3 0.0
27/10:30am 14.4 9.5 8.4 67 3.1 WNW 24 33 13 18 1011.7 1011.6 0.0
27/10:00am 14.0 8.7 8.6 70 2.8 NW 26 37 14 20 1011.5 1011.4 0.0
27/09:30am 13.5 9.3 8.1 70 2.7 NW 20 28 11 15 1012.1 1012.0 0.0
27/09:00am 12.9 7.9 8.0 72 2.5 WNW 24 33 13 18 1012.2 1012.1 0.0
27/08:30am 11.4 7.5 7.3 76 2.0 NW 17 30 9 16 1012.1 1012.0 0.0
27/08:00am 10.3 6.3 6.5 77 1.8 NNW 17 24 9 13 1012.1 1012.0 0.0
27/07:30am 10.2 6.6 6.7 79 1.7 NW 15 19 8 10 1012.0 1011.8 0.0
27/07:00am 9.5 5.8 6.4 81 1.5 NW 15 20 8 11 1011.8 1011.7 0.0
27/06:30am 9.5 5.9 6.6 82 1.4 NW 15 17 8 9 1011.7 1011.6 0.0
27/06:00am 9.6 5.1 6.3 80 1.6 WNW 19 22 10 12 1011.6 1011.5 0.0
27/05:30am 9.7 5.2 6.2 79 1.6 WNW 19 24 10 13 1011.6 1011.5 0.0
27/05:00am 7.2 4.4 5.3 88 0.9 NNE 9 13 5 7 1011.8 1011.7 0.0
27/04:30am 6.1 4.9 4.6 90 0.7 CALM 0 0 0 0 1012.1 1012.0 0.0
27/04:00am 6.3 4.0 4.8 90 0.7 N 6 9 3 5 1012.2 1012.1 0.0
27/03:30am 6.5 3.7 5.1 91 0.6 N 9 11 5 6 1012.3 1012.2 0.0
27/03:00am 6.5 3.7 5.0 90 0.7 NNW 9 11 5 6 1012.5 1012.4 0.0
27/02:30am 7.2 4.2 5.8 91 0.6 N 11 15 6 8 1012.6 1012.5 0.0
27/02:00am 6.6 3.8 5.1 90 0.7 NNW 9 11 5 6 1012.6 1012.5 0.0
27/01:30am 6.9 4.7 5.2 89 0.8 NNW 6 7 3 4 1012.6 1012.5 0.0
27/01:00am 8.2 6.1 6.8 91 0.7 NW 7 11 4 6 1012.5 1012.4 0.0
27/12:30am 6.0 4.4 4.5 90 0.7 SW 2 4 1 2 1012.6 1012.5 0.0
27/12:00am 6.6 4.7 4.9 89 0.8 SSE 4 6 2 3 1012.9 1012.8 0.0
 
Date/Time
CST
Temp
°C
App
Temp
°C
Dew
Point
Rel
Hum
%
Delta-T
°C
Wind Press
QNH
hPa
Press
MSL
hPa
Rain
since 9 am
mm
Dir
 
Spd
km/h
Gust
km/h
Spd
kts
Gust
kts
26/11:30pm 8.0 5.8 6.3 89 0.8 WSW 7 7 4 4 1013.1 1013.0 0.0
26/11:00pm 8.4 5.5 6.4 87 0.9 WNW 11 13 6 7 1013.2 1013.1 0.0
26/10:30pm 8.8 5.5 6.6 86 1.0 W 13 15 7 8 1013.0 1012.9 0.0
26/10:00pm 8.8 5.5 6.6 86 1.0 W 13 13 7 7 1013.1 1013.0 0.0
26/09:30pm 8.8 6.0 6.9 88 0.9 WNW 11 13 6 7 1013.2 1013.1 0.0
26/09:00pm 8.6 6.6 6.4 86 1.0 WNW 6 6 3 3 1013.1 1013.0 0.0
26/08:30pm 9.2 6.8 6.8 85 1.1 W 9 11 5 6 1013.0 1012.9 0.0
26/08:00pm 10.0 8.2 7.3 83 1.3 WSW 6 9 3 5 1012.6 1012.5 0.0
26/07:30pm 10.6 8.7 7.5 81 1.5 SW 7 9 4 5 1012.2 1012.1 0.0
26/07:00pm 11.9 9.3 7.8 76 2.0 SW 11 15 6 8 1011.7 1011.6 0.0
26/06:30pm 12.7 9.8 8.0 73 2.4 SW 13 19 7 10 1011.4 1011.3 0.0
26/06:00pm 13.6 9.9 8.0 69 2.8 WSW 17 24 9 13 1011.1 1011.0 0.0
26/05:30pm 14.2 11.6 7.7 65 3.3 SW 11 15 6 8 1011.0 1010.9 0.0
26/05:00pm 14.7 11.6 7.3 61 3.7 SW 13 17 7 9 1010.5 1010.4 0.0
26/04:30pm 15.4 12.1 6.2 54 4.5 SW 13 20 7 11 1010.1 1010.0 0.0
26/04:00pm 16.1 12.0 6.3 52 4.8 SSW 17 22 9 12 1009.7 1009.6 0.0
26/03:30pm 15.7 12.0 6.4 54 4.6 SW 15 22 8 12 1009.5 1009.4 0.0
26/03:00pm 16.4 11.9 6.0 50 5.1 SW 19 28 10 15 1009.4 1009.3 0.0
26/02:30pm 16.1 11.6 6.0 51 5.0 SW 19 26 10 14 1009.1 1008.9 0.0
26/02:00pm 16.7 11.8 6.8 52 5.0 SW 22 30 12 16 1009.1 1008.9 0.0
26/01:30pm 16.3 11.8 7.0 54 4.7 SW 20 32 11 17 1009.0 1008.8 0.0
26/01:00pm 15.7 10.3 6.4 54 4.6 SW 24 33 13 18 1009.1 1008.9 0.0
26/12:30pm 15.9 10.3 7.1 56 4.4 SW 26 35 14 19 1009.0 1008.8 0.0
26/12:00pm 16.5 11.8 7.7 56 4.5 SSW 22 30 12 16 1009.0 1008.8 0.0
26/11:30am 15.4 10.8 8.2 62 3.7 SW 22 32 12 17 1009.3 1009.2 0.0
26/11:00am 15.7 11.4 9.4 66 3.3 SW 22 32 12 17 1009.7 1009.6 0.0
26/10:30am 15.9 11.8 10.0 68 3.1 SSW 22 32 12 17 1009.7 1009.6 0.0
26/10:00am 14.8 10.6 9.6 71 2.7 SSW 22 32 12 17 1009.5 1009.4 0.0
26/09:30am 14.9 10.8 10.1 73 2.5 SW 22 32 12 17 1009.1 1008.9 0.0
26/09:00am 14.4 11.6 11.4 82 1.6 SW 17 24 9 13 1008.9 1008.7 9.2
26/08:30am 13.3 10.8 11.2 87 1.1 WSW 15 20 8 11 1008.9 1008.7 9.2
26/08:00am 13.1 10.2 11.0 87 1.1 W 17 24 9 13 1008.7 1008.5 9.2
26/07:30am 12.6 9.6 10.8 89 1.0 WNW 17 20 9 11 1008.5 1008.3 9.2
26/07:00am 12.5 10.7 10.9 90 0.8 WNW 11 15 6 8 1008.2 1008.1 9.2
26/06:30am 11.1 9.7 9.7 91 0.7 NW 7 9 4 5 1007.7 1007.6 9.2
26/06:00am 10.9 8.8 9.7 92 0.6 NNW 11 13 6 7 1007.6 1007.5 9.2
26/05:30am 11.3 8.5 9.9 91 0.7 NNW 15 17 8 9 1007.5 1007.4 9.2
26/05:00am 10.9 9.1 9.5 91 0.7 N 9 13 5 7 1007.6 1007.5 9.2
26/04:30am 10.9 8.3 9.5 91 0.7 N 13 17 7 9 1007.6 1007.5 9.2
26/04:00am 10.8 7.8 9.4 91 0.7 N 15 20 8 11 1007.6 1007.5 9.2
26/03:30am 11.0 7.1 9.4 90 0.8 NNW 20 24 11 13 1007.4 1007.3 9.2
26/03:00am 11.2 6.6 9.6 90 0.8 NNW 24 32 13 17 1007.4 1007.3 9.2
26/02:30am 10.2 5.8 8.8 91 0.7 NNW 22 28 12 15 1007.0 1006.9 9.0
26/02:00am 9.8 5.6 8.4 91 0.7 NNW 20 24 11 13 1007.3 1007.2 9.0
26/01:30am 9.3 4.6 7.9 91 0.7 NNW 22 32 12 17 1007.8 1007.7 9.0
26/01:00am 9.2 3.4 7.8 91 0.7 N 28 35 15 19 1007.7 1007.6 9.0
26/12:30am 9.4 4.4 8.0 91 0.7 N 24 32 13 17 1007.8 1007.7 9.0
26/12:00am 9.4 4.0 8.2 92 0.6 N 26 32 14 17 1008.3 1008.2 9.0
 
Date/Time
CST
Temp
°C
App
Temp
°C
Dew
Point
Rel
Hum
%
Delta-T
°C
Wind Press
QNH
hPa
Press
MSL
hPa
Rain
since 9 am
mm
Dir
 
Spd
km/h
Gust
km/h
Spd
kts
Gust
kts
25/11:30pm 9.6 3.9 8.2 91 0.7 N 28 35 15 19 1008.5 1008.3 9.0
25/11:00pm 9.9 3.5 8.5 91 0.7 N 32 39 17 21 1008.8 1008.6 8.6
25/10:30pm 9.9 4.2 8.5 91 0.7 N 28 35 15 19 1008.6 1008.4 8.0
25/10:00pm 9.9 3.4 8.3 90 0.8 NNW 32 37 17 20 1008.7 1008.5 7.4
25/09:30pm 10.0 3.0 8.6 91 0.7 N 35 46 19 25 1009.0 1008.8 7.0
25/09:00pm 10.2 5.0 8.8 91 0.7 N 26 35 14 19 1009.5 1009.4 7.0
25/08:30pm 10.1 5.3 8.7 91 0.7 N 24 33 13 18 1009.7 1009.6 7.0
25/08:00pm 10.1 3.7 8.7 91 0.7 N 32 43 17 23 1009.9 1009.8 6.6
25/07:30pm 10.1 4.5 8.7 91 0.7 N 28 35 15 19 1009.9 1009.8 6.6
25/07:00pm 10.2 3.2 8.6 90 0.8 N 35 44 19 24 1010.0 1009.9 6.4
25/06:30pm 10.3 4.7 8.7 90 0.8 N 28 35 15 19 1009.4 1009.3 6.4
25/06:00pm 10.5 6.1 8.9 90 0.8 N 22 32 12 17 1009.1 1008.9 6.4
25/05:30pm 10.4 7.7 9.0 91 0.7 N 13 22 7 12 1009.2 1009.1 6.2
25/05:00pm 10.4 5.2 9.0 91 0.7 N 26 35 14 19 1009.7 1009.6 6.2
25/04:30pm 10.6 5.5 9.2 91 0.7 N 26 35 14 19 1010.2 1010.1 5.6
25/04:00pm 10.8 6.5 9.2 90 0.8 N 22 37 12 20 1010.7 1010.6 5.2
25/03:30pm 10.9 8.3 9.2 89 0.9 N 13 22 7 12 1010.4 1010.3 5.2
25/03:00pm 11.2 8.6 9.3 88 1.0 N 13 19 7 10 1010.1 1010.0 5.0
25/02:30pm 10.8 7.0 9.1 89 0.9 N 19 28 10 15 1010.1 1010.0 5.0
25/02:00pm 10.7 5.9 8.8 88 1.0 N 24 32 13 17 1010.8 1010.7 5.0
25/01:30pm 10.3 8.7 8.7 90 0.8 N 7 13 4 7 1011.0 1010.9 5.0
25/01:00pm 9.4 8.1 7.8 90 0.8 NE 4 7 2 4 1012.3 1012.2 4.8
25/12:30pm 9.2 7.3 7.6 90 0.8 NNE 7 11 4 6 1013.0 1012.9 3.2
25/12:00pm 9.4 7.2 7.8 90 0.8 NNE 9 20 5 11 1013.4 1013.3 2.8
25/11:30am 9.7 7.5 7.8 88 0.9 N 9 15 5 8 1014.1 1014.0 2.6
25/11:00am 10.3 8.1 7.9 85 1.2 NNW 9 13 5 7 1014.6 1014.5 2.0
25/10:30am 10.3 8.9 7.4 82 1.4 NNE 4 7 2 4 1014.7 1014.6 1.8
25/10:00am 9.8 8.2 6.2 78 1.7 NNE 4 9 2 5 1015.3 1015.3 1.4
25/09:30am 9.7 7.5 6.1 78 1.7 N 7 13 4 7 1015.7 1015.6 0.6
25/09:00am 10.5 6.9 4.9 68 2.6 NNW 13 19 7 10 1015.7 1015.6 0.4
25/08:30am 11.3 6.6 3.1 57 3.6 N 17 20 9 11 1015.5 1015.4 0.2
25/08:00am 11.0 7.1 3.3 59 3.4 N 13 19 7 10 1015.5 1015.4 0.2
25/07:30am 10.7 6.5 4.0 63 3.0 N 15 20 8 11 1015.6 1015.5 0.2
25/07:00am 10.7 6.1 3.5 61 3.2 N 17 24 9 13 1014.8 1014.8 0.0
25/06:30am 10.9 5.8 3.2 59 3.4 N 19 26 10 14 1014.4 1014.3 0.0
25/06:00am 11.1 4.7 3.2 58 3.5 N 26 33 14 18 1014.5 1014.4 0.0
25/05:30am 11.1 4.6 2.9 57 3.6 N 26 35 14 19 1014.4 1014.3 0.0
25/05:00am 11.0 4.2 3.1 58 3.5 N 28 39 15 21 1014.1 1014.0 0.0
25/04:30am 12.1 4.3 1.4 48 4.6 N 32 43 17 23 1014.4 1014.3 0.0
25/04:00am 12.8 3.6 -1.1 38 5.7 N 37 48 20 26 1014.2 1014.1 0.0
25/03:30am 13.1 3.9 -1.2 37 5.9 N 37 48 20 26 1014.2 1014.1 0.0
25/03:00am 13.4 4.6 -1.3 36 6.0 N 35 54 19 29 1014.5 1014.4 0.0
25/02:57am 13.4 4.6 -1.3 36 6.0 N 35 54 19 29 1014.5 1014.4 0.0
25/02:30am 13.1 4.6 -1.6 36 6.0 N 33 44 18 24 1014.7 1014.6 0.0
25/02:00am 13.4 4.9 -1.7 35 6.2 N 33 43 18 23 1015.1 1015.1 0.0
25/01:30am 13.4 5.5 -1.7 35 6.1 N 30 39 16 21 1015.5 1015.4 0.0
25/01:00am 12.6 5.9 -1.3 38 5.7 N 24 33 13 18 1015.6 1015.5 0.0
25/12:30am 11.9 6.5 -1.6 39 5.4 N 17 22 9 12 1016.3 1016.2 0.0
25/12:00am 10.1 6.5 -1.9 43 4.7 N 7 13 4 7 1017.1 1017.0 0.0
 
Date/Time
CST
Temp
°C
App
Temp
°C
Dew
Point
Rel
Hum
%
Delta-T
°C
Wind Press
QNH
hPa
Press
MSL
hPa
Rain
since 9 am
mm
Dir
 
Spd
km/h
Gust
km/h
Spd
kts
Gust
kts
24/11:30pm 11.1 8.5 -1.6 41 5.1 WNW 2 4 1 2 1017.7 1017.7 0.0
24/11:00pm 11.5 8.5 -1.6 40 5.2 NE 4 6 2 3 1017.8 1017.8 0.0
24/10:30pm 11.2 7.6 -1.9 40 5.2 N 7 9 4 5 1018.1 1018.1 0.0
24/10:00pm 11.7 7.8 -1.8 39 5.4 N 9 15 5 8 1018.2 1018.2 0.0
24/09:30pm 11.8 7.4 -2.8 36 5.7 N 11 17 6 9 1018.6 1018.6 0.0
24/09:00pm 10.5 5.7 -2.8 39 5.1 N 13 15 7 8 1018.7 1018.7 0.0
24/08:30pm 11.2 6.0 -2.6 38 5.4 N 15 15 8 8 1019.1 1019.0 0.0
24/08:00pm 11.1 5.5 -2.7 38 5.4 N 17 19 9 10 1019.1 1019.0 0.0
24/07:30pm 11.7 5.8 -2.5 37 5.6 NNW 19 19 10 10 1019.1 1019.0 0.0
24/07:00pm 12.5 6.6 -2.1 36 5.8 N 19 20 10 11 1019.0 1018.9 0.0
24/06:30pm 13.2 7.7 -2.3 34 6.2 N 17 19 9 10 1018.8 1018.8 0.0
24/06:00pm 14.5 9.0 -2.0 32 6.7 N 17 20 9 11 1018.7 1018.7 0.0
24/05:30pm 15.8 10.3 -2.2 29 7.4 N 17 22 9 12 1018.7 1018.7 0.0
24/05:00pm 17.1 11.2 -2.0 27 8.0 N 19 28 10 15 1018.8 1018.8 0.0
24/04:30pm 18.3 12.4 -2.0 25 8.6 N 19 30 10 16 1019.0 1018.9 0.0
24/04:00pm 19.1 13.2 -2.5 23 9.1 N 19 28 10 15 1019.2 1019.1 0.0
24/03:30pm 19.4 13.5 -2.2 23 9.2 N 19 26 10 14 1019.2 1019.1 0.0
24/03:00pm 19.4 13.6 -1.7 24 9.1 N 19 28 10 15 1019.3 1019.2 0.0
24/02:30pm 19.6 14.6 -1.5 24 9.1 N 15 24 8 13 1019.5 1019.4 0.0

Other Formats:

Comma delimited format used in spreadsheet applications
http://www.bom.gov.au/fwo/IDS60801/IDS60801.94684.axf

JavaScript Object Notation format (JSON) in row-major order
http://www.bom.gov.au/fwo/IDS60801/IDS60801.94684.json